createdAt,value
2023-03-26T00:01:23.700Z,14.00
2023-03-26T00:04:01.288Z,14.45
2023-03-26T00:06:29.947Z,13.45
2023-03-26T00:08:58.271Z,17.50
2023-03-26T00:11:27.780Z,14.35
2023-03-26T00:13:58.935Z,12.65
2023-03-26T00:16:28.126Z,18.27
2023-03-26T00:18:55.712Z,19.85
2023-03-26T00:21:27.764Z,20.30
2023-03-26T00:23:56.475Z,24.75
2023-03-26T00:26:24.007Z,22.40
2023-03-26T00:28:51.372Z,20.42
2023-03-26T00:31:18.815Z,29.17
2023-03-26T00:33:47.663Z,22.70
2023-03-26T00:36:17.328Z,25.70
2023-03-26T00:38:46.870Z,38.92
2023-03-26T00:41:22.789Z,22.95
2023-03-26T00:43:52.019Z,23.38
2023-03-26T00:46:19.422Z,30.00
2023-03-26T00:48:47.114Z,31.50
2023-03-26T00:51:16.128Z,36.88
2023-03-26T00:53:47.020Z,40.88
2023-03-26T00:56:14.756Z,35.00
2023-03-26T00:58:42.164Z,33.23
2023-03-26T01:01:13.725Z,29.08
2023-03-26T01:03:45.704Z,32.58
2023-03-26T01:06:27.944Z,37.60
2023-03-26T01:09:00.341Z,37.58
2023-03-26T01:11:30.388Z,41.17
2023-03-26T01:14:00.273Z,37.85
2023-03-26T01:16:37.060Z,36.38
2023-03-26T01:19:10.315Z,34.45
2023-03-26T01:21:38.798Z,27.80
2023-03-26T01:24:07.468Z,37.73
2023-03-26T01:26:40.709Z,36.53
2023-03-26T01:29:09.591Z,49.05
2023-03-26T01:31:39.898Z,45.88
2023-03-26T01:34:07.147Z,44.53
2023-03-26T01:36:42.850Z,42.30
2023-03-26T01:39:18.707Z,45.72
2023-03-26T01:41:47.859Z,43.78
2023-03-26T01:44:18.249Z,39.35
2023-03-26T01:46:46.244Z,39.85
2023-03-26T01:49:13.700Z,50.80
2023-03-26T01:51:42.457Z,47.78
2023-03-26T01:54:11.855Z,45.00
2023-03-26T01:56:53.012Z,34.90
2023-03-26T01:59:23.348Z,52.10
2023-03-26T02:01:59.952Z,38.93
2023-03-26T02:04:32.124Z,45.50
2023-03-26T02:07:09.309Z,38.63
2023-03-26T02:09:45.703Z,37.90
2023-03-26T02:12:14.388Z,36.92
2023-03-26T02:14:42.917Z,44.03
2023-03-26T02:17:10.910Z,42.80
2023-03-26T02:19:42.250Z,40.28
2023-03-26T02:22:15.841Z,45.40
2023-03-26T02:24:45.880Z,44.70
2023-03-26T02:27:13.580Z,43.70
2023-03-26T02:29:42.512Z,50.40
2023-03-26T02:32:13.356Z,34.88
2023-03-26T02:34:41.287Z,51.13
2023-03-26T02:37:08.883Z,35.80
2023-03-26T02:39:37.308Z,35.53
2023-03-26T02:42:12.306Z,39.05
2023-03-26T02:44:46.143Z,39.83
2023-03-26T02:47:19.222Z,43.38
2023-03-26T02:50:11.941Z,37.17
2023-03-26T02:52:52.309Z,31.20
2023-03-26T02:55:19.751Z,37.00
2023-03-26T02:57:48.378Z,36.35
2023-03-26T03:00:21.962Z,37.75
2023-03-26T03:02:57.838Z,32.03
2023-03-26T03:05:31.862Z,33.77
2023-03-26T03:08:14.320Z,37.30
2023-03-26T03:11:01.443Z,38.00
2023-03-26T03:13:46.587Z,33.13
2023-03-26T03:16:18.541Z,34.33
2023-03-26T03:18:47.535Z,40.87
2023-03-26T03:21:15.322Z,38.05
2023-03-26T03:23:42.611Z,35.20
2023-03-26T03:26:15.664Z,35.70
2023-03-26T03:28:46.812Z,29.83
2023-03-26T03:31:16.671Z,37.23
2023-03-26T03:33:46.286Z,39.13
2023-03-26T03:36:20.387Z,30.50
2023-03-26T03:39:02.179Z,35.03
2023-03-26T03:41:30.257Z,36.72
2023-03-26T03:43:59.918Z,33.10
2023-03-26T03:46:30.303Z,30.48
2023-03-26T03:48:57.879Z,33.83
2023-03-26T03:51:35.948Z,36.08
2023-03-26T03:54:21.045Z,36.95
2023-03-26T03:56:49.133Z,37.43
2023-03-26T03:59:31.492Z,36.55
2023-03-26T04:01:59.479Z,36.42
2023-03-26T04:04:42.447Z,39.95
2023-03-26T04:07:12.404Z,48.28
2023-03-26T04:10:00.366Z,35.60
2023-03-26T04:12:32.577Z,45.25
2023-03-26T04:15:02.368Z,34.38
2023-03-26T04:17:33.132Z,39.40
2023-03-26T04:20:13.477Z,33.47
2023-03-26T04:22:41.150Z,41.03
2023-03-26T04:25:09.293Z,37.88
2023-03-26T04:27:52.251Z,35.70
2023-03-26T04:30:42.391Z,33.15
2023-03-26T04:33:34.322Z,31.85
2023-03-26T04:36:03.222Z,36.87
2023-03-26T04:38:38.570Z,40.75
2023-03-26T04:41:07.781Z,29.40
2023-03-26T04:43:50.492Z,26.95
2023-03-26T04:46:24.350Z,36.30
2023-03-26T04:49:02.326Z,38.23
2023-03-26T04:51:35.146Z,34.45
2023-03-26T04:54:02.900Z,34.03
2023-03-26T04:56:39.775Z,37.58
2023-03-26T04:59:45.618Z,40.17
2023-03-26T05:02:15.587Z,33.80
2023-03-26T05:04:50.058Z,39.45
2023-03-26T05:07:20.108Z,32.75
2023-03-26T05:09:54.235Z,29.30
2023-03-26T05:12:40.490Z,30.92
2023-03-26T05:15:11.874Z,34.77
2023-03-26T05:18:05.261Z,26.10
2023-03-26T05:20:38.301Z,32.42
2023-03-26T05:23:08.084Z,33.45
2023-03-26T05:25:58.269Z,35.42
2023-03-26T05:28:27.477Z,35.83
2023-03-26T05:30:58.676Z,40.58
2023-03-26T05:33:28.334Z,32.30
2023-03-26T05:36:05.518Z,36.65
2023-03-26T05:38:33.435Z,36.58
2023-03-26T05:41:02.904Z,42.73
2023-03-26T05:43:31.456Z,38.22
2023-03-26T05:46:11.583Z,36.28
2023-03-26T05:48:39.239Z,34.63
2023-03-26T05:51:07.953Z,24.33
2023-03-26T05:53:36.401Z,35.47
2023-03-26T05:56:24.289Z,29.38
2023-03-26T05:59:10.010Z,32.42
2023-03-26T06:01:56.063Z,36.65
2023-03-26T06:04:42.839Z,31.13
2023-03-26T06:07:22.282Z,28.60
2023-03-26T06:10:09.431Z,38.67
2023-03-26T06:12:37.653Z,32.42
2023-03-26T06:15:06.170Z,38.90
2023-03-26T06:18:02.852Z,33.92
2023-03-26T06:20:48.610Z,27.67
2023-03-26T06:23:25.372Z,24.70
2023-03-26T06:26:06.683Z,25.77
2023-03-26T06:29:00.504Z,29.90
2023-03-26T06:31:53.618Z,31.13
2023-03-26T06:34:27.147Z,31.60
2023-03-26T06:36:54.735Z,26.90
2023-03-26T06:39:22.910Z,36.30
2023-03-26T06:42:00.435Z,23.23
2023-03-26T06:44:41.288Z,35.92
2023-03-26T06:47:27.524Z,30.57
2023-03-26T06:49:55.029Z,42.33
2023-03-26T06:52:37.400Z,35.60
2023-03-26T06:55:15.883Z,26.77
2023-03-26T06:57:58.162Z,31.77
2023-03-26T07:00:44.221Z,31.40
2023-03-26T07:03:30.286Z,28.13
2023-03-26T07:06:16.545Z,31.17
2023-03-26T07:09:02.973Z,37.30
2023-03-26T07:11:42.545Z,30.23
2023-03-26T07:14:30.512Z,29.03
2023-03-26T07:17:08.453Z,26.88
2023-03-26T07:19:54.419Z,32.08
2023-03-26T07:22:26.393Z,30.45
2023-03-26T07:25:13.346Z,27.65
2023-03-26T07:28:21.461Z,25.37
2023-03-26T07:31:09.655Z,29.98
2023-03-26T07:33:55.346Z,34.75
2023-03-26T07:36:43.589Z,31.52
2023-03-26T07:39:38.343Z,37.33
2023-03-26T07:42:22.105Z,40.90
2023-03-26T07:45:23.302Z,34.97
2023-03-26T07:48:27.538Z,32.08
2023-03-26T07:51:30.790Z,30.42
2023-03-26T07:54:11.209Z,38.08
2023-03-26T07:56:40.110Z,34.27
2023-03-26T07:59:26.019Z,27.75
2023-03-26T08:02:30.874Z,34.83
2023-03-26T08:05:41.495Z,25.80
2023-03-26T08:08:37.598Z,40.38
2023-03-26T08:11:46.130Z,28.13
2023-03-26T08:14:19.520Z,27.90
2023-03-26T08:16:50.926Z,26.83
2023-03-26T08:19:27.484Z,30.27
2023-03-26T08:21:56.749Z,41.90
2023-03-26T08:24:38.947Z,30.67
2023-03-26T08:27:06.696Z,31.60
2023-03-26T08:29:37.037Z,30.08
2023-03-26T08:32:05.285Z,35.78
2023-03-26T08:34:32.581Z,42.15
2023-03-26T08:36:59.894Z,37.60
2023-03-26T08:39:27.168Z,37.28
2023-03-26T08:42:09.818Z,36.60
2023-03-26T08:44:48.801Z,30.58
2023-03-26T08:47:34.973Z,35.85
2023-03-26T08:50:08.445Z,38.33
2023-03-26T08:52:37.765Z,35.05
2023-03-26T08:55:06.152Z,39.05
2023-03-26T08:57:35.729Z,35.08
2023-03-26T09:00:13.606Z,34.70
2023-03-26T09:02:43.974Z,33.47
2023-03-26T09:05:17.418Z,29.83
2023-03-26T09:07:55.236Z,28.25
2023-03-26T09:10:22.532Z,39.70
2023-03-26T09:12:56.032Z,34.70
2023-03-26T09:15:43.599Z,35.70
2023-03-26T09:18:10.895Z,25.77
2023-03-26T09:20:45.213Z,24.95
2023-03-26T09:23:18.540Z,25.08
2023-03-26T09:25:48.943Z,25.90
2023-03-26T09:28:35.285Z,36.47
2023-03-26T09:31:05.572Z,22.48
2023-03-26T09:33:35.964Z,24.05
2023-03-26T09:36:19.407Z,20.88
2023-03-26T09:38:52.416Z,16.55
2023-03-26T09:41:39.168Z,20.53
2023-03-26T09:44:21.776Z,17.70
2023-03-26T09:47:01.480Z,17.75
2023-03-26T09:49:47.308Z,23.17
2023-03-26T09:52:18.959Z,17.42
2023-03-26T09:54:52.412Z,15.23
2023-03-26T09:57:45.243Z,101.82
2023-03-26T10:00:21.947Z,22.33
2023-03-26T10:02:57.260Z,15.73
2023-03-26T10:05:42.850Z,20.05
2023-03-26T10:08:20.720Z,18.57
2023-03-26T10:11:24.286Z,14.88
2023-03-26T10:14:01.535Z,19.13
2023-03-26T10:16:47.746Z,16.75
2023-03-26T10:19:21.999Z,14.02
2023-03-26T10:21:58.474Z,19.40
2023-03-26T10:24:44.560Z,16.05
2023-03-26T10:27:30.673Z,15.20
2023-03-26T10:30:13.361Z,14.65
2023-03-26T10:32:59.437Z,14.30
2023-03-26T10:35:30.606Z,13.60
2023-03-26T10:37:58.106Z,13.57
2023-03-26T10:40:35.735Z,18.75
2023-03-26T10:43:22.044Z,14.52
2023-03-26T10:46:02.473Z,13.50
2023-03-26T10:48:48.641Z,12.57
2023-03-26T10:51:25.221Z,13.73
2023-03-26T10:53:56.930Z,13.35
2023-03-26T10:56:28.304Z,10.77
2023-03-26T10:58:57.045Z,12.52
2023-03-26T11:01:33.596Z,16.23
2023-03-26T11:04:11.018Z,10.48
2023-03-26T11:06:45.643Z,15.00
2023-03-26T11:09:20.967Z,11.45
2023-03-26T11:11:54.236Z,10.75
2023-03-26T11:14:40.452Z,13.80
2023-03-26T11:17:14.532Z,13.18
2023-03-26T11:20:07.564Z,13.60
2023-03-26T11:22:53.767Z,16.23
2023-03-26T11:25:23.818Z,13.18
2023-03-26T11:27:57.339Z,12.63
2023-03-26T11:30:33.856Z,13.80
2023-03-26T11:33:02.841Z,16.67
2023-03-26T11:35:39.610Z,14.45
2023-03-26T11:38:27.237Z,17.13
2023-03-26T11:40:55.955Z,14.60
2023-03-26T11:43:52.515Z,13.32
2023-03-26T11:46:22.618Z,13.95
2023-03-26T11:48:59.511Z,13.88
2023-03-26T11:51:33.926Z,15.57
2023-03-26T11:54:03.289Z,13.33
2023-03-26T11:56:33.884Z,12.75
2023-03-26T11:59:07.631Z,13.93
2023-03-26T12:01:44.221Z,12.82
2023-03-26T12:04:13.893Z,13.63
2023-03-26T12:06:51.035Z,20.63
2023-03-26T12:09:18.863Z,14.70
2023-03-26T12:11:49.514Z,17.13
2023-03-26T12:14:21.732Z,16.17
2023-03-26T12:16:58.297Z,12.65
2023-03-26T12:19:28.775Z,11.90
2023-03-26T12:21:56.151Z,9.95
2023-03-26T12:24:29.709Z,13.15
2023-03-26T12:27:02.235Z,15.68
2023-03-26T12:29:34.550Z,11.57
2023-03-26T12:32:07.460Z,14.43
2023-03-26T12:34:35.976Z,14.13
2023-03-26T12:37:04.247Z,12.68
2023-03-26T12:40:09.079Z,11.10
2023-03-26T12:44:47.760Z,13.13
2023-03-26T12:45:24.075Z,14.03
2023-03-26T12:47:57.979Z,11.88
2023-03-26T12:50:35.888Z,12.88
2023-03-26T12:53:19.305Z,10.77
2023-03-26T12:56:00.333Z,10.30
2023-03-26T12:58:48.045Z,9.77
2023-03-26T13:01:23.100Z,13.27
2023-03-26T13:04:05.110Z,11.88
2023-03-26T13:07:00.660Z,14.77
2023-03-26T13:09:34.868Z,10.20
2023-03-26T13:12:04.949Z,10.70
2023-03-26T13:14:39.060Z,9.07
2023-03-26T13:17:06.386Z,13.52
2023-03-26T13:19:38.031Z,11.85
2023-03-26T13:22:22.510Z,13.65
2023-03-26T13:24:54.853Z,10.00
2023-03-26T13:27:41.186Z,12.02
2023-03-26T13:30:08.497Z,11.35
2023-03-26T13:32:59.479Z,14.85
2023-03-26T13:35:33.465Z,8.55
2023-03-26T13:38:01.086Z,16.43
2023-03-26T13:40:43.031Z,11.55
2023-03-26T13:43:22.395Z,10.10
2023-03-26T13:45:59.536Z,9.52
2023-03-26T13:48:29.132Z,11.57
2023-03-26T13:51:10.119Z,7.10
2023-03-26T13:53:57.604Z,9.65
2023-03-26T13:56:29.054Z,9.05
2023-03-26T13:59:01.219Z,8.68
2023-03-26T14:01:36.368Z,8.18
2023-03-26T14:04:04.033Z,9.07
2023-03-26T14:06:37.153Z,9.57
2023-03-26T14:09:16.447Z,9.27
2023-03-26T14:11:59.134Z,9.45
2023-03-26T14:14:34.537Z,10.88
2023-03-26T14:17:24.177Z,7.47
2023-03-26T14:19:51.704Z,8.70
2023-03-26T14:22:18.927Z,7.45
2023-03-26T14:24:46.475Z,5.68
2023-03-26T14:27:21.827Z,7.88
2023-03-26T14:30:08.137Z,7.63
2023-03-26T14:32:46.669Z,8.98
2023-03-26T14:35:13.981Z,8.95
2023-03-26T14:38:00.176Z,9.43
2023-03-26T14:40:30.583Z,7.05
2023-03-26T14:43:16.406Z,7.73
2023-03-26T14:45:50.199Z,8.35
2023-03-26T14:48:32.717Z,9.68
2023-03-26T14:51:18.656Z,10.93
2023-03-26T14:53:49.573Z,6.53
2023-03-26T14:56:32.269Z,5.77
2023-03-26T14:59:38.344Z,6.15
2023-03-26T15:02:36.465Z,8.82
2023-03-26T15:05:03.771Z,7.88
2023-03-26T15:07:41.033Z,7.30
2023-03-26T15:10:12.242Z,7.37
2023-03-26T15:12:58.265Z,8.32
2023-03-26T15:15:35.094Z,8.55
2023-03-26T15:18:11.922Z,9.00
2023-03-26T15:20:42.414Z,7.95
2023-03-26T15:23:09.630Z,11.57
2023-03-26T15:25:43.113Z,7.93
2023-03-26T15:28:29.670Z,8.40
2023-03-26T15:31:23.620Z,8.57
2023-03-26T15:34:09.848Z,6.72
2023-03-26T15:36:37.225Z,8.93
2023-03-26T15:39:23.595Z,8.63
2023-03-26T15:42:12.053Z,6.50
2023-03-26T15:44:53.143Z,7.07
2023-03-26T15:47:40.158Z,6.50
2023-03-26T15:50:08.157Z,11.80
2023-03-26T15:52:44.432Z,9.93
2023-03-26T15:55:17.908Z,13.57
2023-03-26T15:57:51.145Z,9.30
2023-03-26T16:00:33.570Z,11.50
2023-03-26T16:03:19.750Z,10.53
2023-03-26T16:05:53.269Z,10.45
2023-03-26T16:08:23.541Z,9.75
2023-03-26T16:10:51.340Z,11.82
2023-03-26T16:13:21.783Z,7.13
2023-03-26T16:16:04.468Z,6.23
2023-03-26T16:18:31.938Z,5.82
2023-03-26T16:21:02.042Z,11.75
2023-03-26T16:23:47.505Z,8.32
2023-03-26T16:26:37.201Z,8.18
2023-03-26T16:29:22.722Z,7.40
2023-03-26T16:32:09.004Z,8.07
2023-03-26T16:34:55.287Z,9.75
2023-03-26T16:37:36.010Z,8.30
2023-03-26T16:40:20.618Z,6.65
2023-03-26T16:43:00.107Z,6.93
2023-03-26T16:45:33.750Z,10.02
2023-03-26T16:48:10.625Z,5.53
2023-03-26T16:50:46.903Z,5.97
2023-03-26T16:53:32.876Z,8.50
2023-03-26T16:56:02.631Z,6.57
2023-03-26T16:58:31.976Z,8.27
2023-03-26T17:01:05.301Z,10.05
2023-03-26T17:03:35.431Z,10.00
2023-03-26T17:06:18.861Z,4.68
2023-03-26T17:08:46.402Z,7.47
2023-03-26T17:11:19.868Z,8.85
2023-03-26T17:14:01.018Z,6.00
2023-03-26T17:16:33.164Z,4.60
2023-03-26T17:19:16.255Z,7.38
2023-03-26T17:22:02.562Z,11.23
2023-03-26T17:24:50.399Z,5.97
2023-03-26T17:27:52.486Z,8.57
2023-03-26T17:30:32.362Z,9.70
2023-03-26T17:33:07.460Z,7.85
2023-03-26T17:35:47.812Z,15.23
2023-03-26T17:38:18.171Z,8.30
2023-03-26T17:40:59.435Z,7.03
2023-03-26T17:43:34.187Z,10.20
2023-03-26T17:46:03.274Z,5.10
2023-03-26T17:48:35.399Z,7.13
2023-03-26T17:51:19.164Z,8.95
2023-03-26T17:53:46.853Z,11.48
2023-03-26T17:56:16.214Z,5.43
2023-03-26T17:58:45.281Z,7.38
2023-03-26T18:01:12.664Z,9.30
2023-03-26T18:03:44.058Z,7.97
2023-03-26T18:06:17.188Z,8.57
2023-03-26T18:08:59.074Z,6.60
2023-03-26T18:11:43.471Z,8.75
2023-03-26T18:14:10.792Z,8.17
2023-03-26T18:16:42.960Z,7.07
2023-03-26T18:19:19.164Z,6.90
2023-03-26T18:21:50.207Z,8.38
2023-03-26T18:24:20.999Z,8.18
2023-03-26T18:26:52.781Z,8.40
2023-03-26T18:29:20.011Z,5.75
2023-03-26T18:31:49.312Z,7.30
2023-03-26T18:34:18.841Z,7.95
2023-03-26T18:36:47.295Z,6.47
2023-03-26T18:39:14.579Z,6.63
2023-03-26T18:41:42.141Z,7.07
2023-03-26T18:44:17.428Z,8.00
2023-03-26T18:46:45.715Z,7.22
2023-03-26T18:49:13.923Z,7.57
2023-03-26T18:51:54.069Z,10.50
2023-03-26T18:54:24.140Z,5.82
2023-03-26T18:56:52.721Z,9.25
2023-03-26T18:59:28.282Z,7.22
2023-03-26T19:01:59.903Z,3.05
2023-03-26T19:04:30.977Z,8.00
2023-03-26T19:06:58.552Z,9.68
2023-03-26T19:09:32.100Z,9.40
2023-03-26T19:12:05.697Z,9.35
2023-03-26T19:14:36.810Z,7.90
2023-03-26T19:17:06.981Z,7.73
2023-03-26T19:19:39.380Z,8.20
2023-03-26T19:22:07.839Z,7.97
2023-03-26T19:24:35.229Z,7.47
2023-03-26T19:27:02.805Z,3.63
2023-03-26T19:29:32.195Z,9.80
2023-03-26T19:32:07.172Z,7.30
2023-03-26T19:34:35.564Z,5.93
2023-03-26T19:37:04.358Z,9.75
2023-03-26T19:39:37.946Z,9.38
2023-03-26T19:42:06.490Z,24.90
2023-03-26T19:44:34.233Z,19.13
2023-03-26T19:47:07.370Z,17.17
2023-03-26T19:49:55.182Z,7.95
2023-03-26T19:52:25.483Z,5.30
2023-03-26T19:54:59.453Z,10.73
2023-03-26T19:57:38.057Z,8.75
2023-03-26T20:00:13.412Z,11.95
2023-03-26T20:02:46.261Z,9.10
2023-03-26T20:05:19.026Z,14.43
2023-03-26T20:07:46.977Z,15.47
2023-03-26T20:10:14.253Z,11.45
2023-03-26T20:12:41.500Z,6.05
2023-03-26T20:15:19.585Z,7.50
2023-03-26T20:17:50.078Z,12.77
2023-03-26T20:20:17.533Z,7.70
2023-03-26T20:22:46.894Z,7.15
2023-03-26T20:27:52.999Z,10.30
2023-03-26T20:30:36.408Z,19.10
2023-03-26T20:33:12.115Z,11.10
2023-03-26T20:35:41.554Z,13.73
2023-03-26T20:38:10.303Z,11.27
2023-03-26T20:40:38.517Z,10.82
2023-03-26T20:43:06.889Z,9.57
2023-03-26T20:45:34.146Z,6.67
2023-03-26T20:48:02.888Z,11.40
2023-03-26T20:50:31.654Z,8.88
2023-03-26T20:53:00.709Z,24.15
2023-03-26T20:55:28.364Z,7.32
2023-03-26T20:57:55.648Z,11.93
2023-03-26T21:00:23.510Z,14.15
2023-03-26T21:02:53.138Z,8.50
2023-03-26T21:05:25.711Z,8.45
2023-03-26T21:07:53.897Z,5.07
2023-03-26T21:10:21.802Z,11.07
2023-03-26T21:12:52.284Z,9.55
2023-03-26T21:15:23.536Z,10.23
2023-03-26T21:17:52.197Z,7.65
2023-03-26T21:20:20.136Z,8.93
2023-03-26T21:23:04.516Z,11.53
2023-03-26T21:25:36.765Z,13.15
2023-03-26T21:28:09.615Z,11.77
2023-03-26T21:30:37.403Z,19.65
2023-03-26T21:33:05.339Z,11.77
2023-03-26T21:35:34.815Z,4.87
2023-03-26T21:38:04.131Z,6.68
2023-03-26T21:40:31.731Z,10.45
2023-03-26T21:42:59.162Z,6.07
2023-03-26T21:45:26.759Z,9.75
2023-03-26T21:47:54.319Z,8.27
2023-03-26T21:50:23.464Z,5.80
2023-03-26T21:52:51.824Z,6.38
2023-03-26T21:55:23.363Z,7.93
2023-03-26T21:57:53.367Z,7.20
2023-03-26T22:00:27.988Z,7.43
2023-03-26T22:03:00.996Z,5.47
2023-03-26T22:05:31.612Z,9.45
2023-03-26T22:08:02.913Z,6.13
2023-03-26T22:10:31.002Z,7.63
2023-03-26T22:12:58.831Z,5.73
2023-03-26T22:15:30.363Z,3.85
2023-03-26T22:18:01.690Z,5.88
2023-03-26T22:20:29.416Z,4.60
2023-03-26T22:22:56.670Z,6.57
2023-03-26T22:25:24.481Z,7.87
2023-03-26T22:27:52.125Z,4.80
2023-03-26T22:30:20.786Z,4.70
2023-03-26T22:32:48.785Z,5.25
2023-03-26T22:35:16.607Z,5.88
2023-03-26T22:37:43.923Z,5.73
2023-03-26T22:40:13.523Z,4.65
2023-03-26T22:42:41.433Z,3.53
2023-03-26T22:45:12.475Z,4.63
2023-03-26T22:47:40.173Z,4.60
2023-03-26T22:50:09.013Z,4.87
2023-03-26T22:52:36.879Z,6.28
2023-03-26T22:55:05.406Z,4.57
2023-03-26T22:57:32.764Z,6.93
2023-03-26T23:00:13.440Z,8.38
2023-03-26T23:02:41.549Z,5.43
2023-03-26T23:05:09.163Z,4.63
2023-03-26T23:07:37.715Z,4.10
2023-03-26T23:10:06.095Z,2.83
2023-03-26T23:12:33.422Z,5.40
2023-03-26T23:15:04.948Z,7.63
2023-03-26T23:17:35.737Z,4.85
2023-03-26T23:20:06.124Z,4.00
2023-03-26T23:22:35.300Z,4.55
2023-03-26T23:25:02.668Z,6.03
2023-03-26T23:27:29.976Z,6.30
2023-03-26T23:29:58.014Z,4.15
2023-03-26T23:32:25.391Z,5.15
2023-03-26T23:34:52.746Z,6.20
2023-03-26T23:37:23.324Z,6.50
2023-03-26T23:39:51.410Z,5.83
2023-03-26T23:42:29.587Z,3.30
2023-03-26T23:44:57.656Z,6.65
2023-03-26T23:47:25.122Z,5.05
2023-03-26T23:49:52.461Z,10.85
2023-03-26T23:52:19.735Z,4.97
2023-03-26T23:54:47.345Z,6.35
2023-03-26T23:57:14.753Z,3.63
2023-03-26T23:59:42.107Z,7.93
